East Corinth, VT (05076)

10:11 AM EDT on October 01, 2016 (GMT -0400)
West Newbury Hills | | Change Station

Elev 1325 ft 44.10 °N, 72.19 °W | Updated 17 seconds ago

Overcast
Overcast
49.8 °F
Feels Like 50 °F
N
0.0
Wind Variable Wind from North
Gusts 0.0 mph

Today
High -- | Low -- °F
--% Chance of Precip.
Yesterday
High -- | Low -- °F
Precip. -- in
Pressure 30.43 in
Visibility 10.0 miles
Clouds Few 900 ft
Overcast 4900 ft
Windchill 50 °F
Dew Point 45 °F
Humidity 84%
Rainfall 0.00 in
Snow Depth Not available.
6:47 AM 6:28 PM
New Moon, 0% visible
METAR KMPV 011351Z AUTO 00000KT 10SM -RA FEW009 OVC049 09/07 A3040 RMK AO2 SLP303 P0001 T00890072
Pressure 30.43 in
Visibility 10.0 miles
Clouds Few 900 ft
Overcast 4900 ft
Windchill 50 °F
Dew Point 45 °F
Humidity 84%
Rainfall 0.00 in
Snow Depth Not available.
6:47 AM 6:28 PM
New Moon, 0% visible
METAR KMPV 011351Z AUTO 00000KT 10SM -RA FEW009 OVC049 09/07 A3040 RMK AO2 SLP303 P0001 T00890072

10-Day Weather Forecast

Almanac

Astronomy

Oct. 01, 2016 Rise Set
Actual Time
Civil Twilight
Nautical Twilight
Astronomical Twilight
Moon
Length of Visible Light
Length of Day
Tomorrow will be .
, % of the Moon is Illuminated

Today's Extremes

State Highs State Lows

Community

WunderPhotos

Upload Photos

1,942,932 photos uploaded!

WunderBlog® & News

Nearby

Air Quality

  Air Quality AQ Index Pollutant
Not available.

Snow Depth

Station Depth Elevation

Earthquake Activity

City Distance Mag. Time & Date
Minimum magnitude displayed is 2.5.

Coastal Water Temperatures

Place Temperature

Stations

Nearby Weather Stations

Station Location Temp. Windchill Dew Point Humidity Wind Precip. Elev Updated Type
                   

Watches & Warnings

There are currently no watches in effect.